WetterOnline ( http://www.wetteronline.de )

Wetter aktuell Wittmund

Aktuelles Wetter: Norderney (16m)

6-stündlich | Neueste Meldungen
Ortszeit Temperatur Wetter
Mo, 22.05. 20:00 16.4° C wolkig
Mo, 22.05. 14:00 18.9° C leicht bewölkt
Mo, 22.05. 8:00 14.1° C fast wolkenlos
Mo, 22.05. 2:00 11.3° C wolkenlos
Ortszeit Temperatur Wetter
Mo, 22.05. 21:00 16.4° C bedeckt
Mo, 22.05. 20:30 16.1° C bewölkt
Mo, 22.05. 20:00 16.4° C wolkig
Mo, 22.05. 19:30 16.7° C wolkig
Mo, 22.05. 19:00 17.4° C leicht bewölkt
Mo, 22.05. 18:30 18.2° C wolkig
Ortszeit Relative Feuchte Sichtweite
Mo, 22.05. 20:00 61% 40 km
Mo, 22.05. 14:00 69% 11 km
Mo, 22.05. 8:00 69% 35 km
Mo, 22.05. 2:00 87% 12 km
Ortszeit Relative Feuchte Sichtweite
Mo, 22.05. 21:00 55% 45 km
Mo, 22.05. 20:30 60% 50 km
Mo, 22.05. 20:00 61% 40 km
Mo, 22.05. 19:30 59% 35 km
Mo, 22.05. 19:00 59% 17 km
Mo, 22.05. 18:30 58% 19 km
Ortszeit Niederschlagsmenge Niederschlagsart
Mo, 22.05. 20:00 0,0 l/m2 in 12 Std. -
Mo, 22.05. 14:00 0,0 l/m2 in 6 Std. -
Mo, 22.05. 8:00 0,0 l/m2 in 12 Std. -
Mo, 22.05. 2:00 0,0 l/m2 in 6 Std. -
Ortszeit Niederschlagsmenge Niederschlagsart
Mo, 22.05. 21:00 0,0 l/m2 in 1 Std. -
Mo, 22.05. 20:30 keine Meldung -
Mo, 22.05. 20:00 0,0 l/m2 in 1 Std. -
Mo, 22.05. 19:30 keine Meldung -
Mo, 22.05. 19:00 0,0 l/m2 in 1 Std. -
Mo, 22.05. 18:30 keine Meldung -
Ortszeit Stärke Spitze Richtung
km/h Bft. km/h Grad Sektor
Mo, 22.05. 20:00 22 4 32 70° O
Mo, 22.05. 14:00 22 4 25 50° NO
Mo, 22.05. 8:00 13 3 22 110° O
Mo, 22.05. 2:00 11 2 18 130° SO
Ortszeit Stärke Spitze Richtung
km/h Bft. km/h Grad Sektor
Mo, 22.05. 21:00 15 3 33 90° O
Mo, 22.05. 20:30 20 4 33 80° O
Mo, 22.05. 20:00 22 4 32 70° O
Mo, 22.05. 19:30 22 4 33 70° O
Mo, 22.05. 19:00 24 4 33 70° O
Mo, 22.05. 18:30 24 4 31 70° O
Ortszeit Untergrenze Bedeckung Gattung
total tief tief mittel hoch
Mo, 22.05. 20:00 6600 m 8/8 5/8 - - -
Mo, 22.05. 14:00 1800 m 6/8 1/8 - - -
Mo, 22.05. 8:00 10500 m 2/8 0/8 - - -
Mo, 22.05. 2:00 - 0/8 0/8 - - -
Ortszeit Bedeckungsgrad in Achtel und Wolkenuntergrenze
Mo, 22.05. 21:00 8(5700m) 8(7800m) 8(9000m)
Mo, 22.05. 20:30 5(6000m) 5(6900m) 8(8100m)
Mo, 22.05. 20:00 5(6600m) 8(8700m) 8(9000m)
Mo, 22.05. 19:30 2(6900m) 7(9000m) 7(9000m)
Mo, 22.05. 19:00 4(9000m)
Mo, 22.05. 18:30 6(9000m) 8(10500m)
Ortszeit Luftdruck NN (hPa) Tendenz (hPa in 3 Std.)
Mo, 22.05. 20:00 1017 - 1,5
Mo, 22.05. 14:00 1020 - 1,4
Mo, 22.05. 8:00 1023 - 0,7
Mo, 22.05. 2:00 1025 - 0,7
Ortszeit Luftdruck NN (hPa) Tendenz (hPa in 3 Std.)
Mo, 22.05. 21:00 1017 - 1,3
Mo, 22.05. 20:30 1017 - 1,5
Mo, 22.05. 20:00 1017 - 1,5
Mo, 22.05. 19:30 1018 - 1,7
Mo, 22.05. 19:00 1018 - 1,7
Mo, 22.05. 18:30 1018 - 1,8
Ortszeit Schneehöhe (cm)
Mo, 22.05. 20:00 -
Mo, 22.05. 14:00 -
Mo, 22.05. 8:00 -
Mo, 22.05. 2:00 -
Ortszeit Schneehöhe (cm)
Mo, 22.05. 21:00 -
Mo, 22.05. 20:30 -
Mo, 22.05. 20:00 -
Mo, 22.05. 19:30 -
Mo, 22.05. 19:00 -
Mo, 22.05. 18:30 -
Link zu dieser Seite / Seite empfehlen

Das Wetter in ...